sensor_id;sensor_type;location;lat;lon;timestamp;pressure;altitude;pressure_sealevel;temperature;humidity
26719;BME280;14326;50.794;6.060;2022-09-13T00:01:25;99114.78;;;16.96;91.32
26719;BME280;14326;50.794;6.060;2022-09-13T00:03:51;99109.44;;;16.94;90.92
26719;BME280;14326;50.794;6.060;2022-09-13T00:06:19;99120.09;;;16.97;91.33
26719;BME280;14326;50.794;6.060;2022-09-13T00:08:46;99123.53;;;17.02;91.23
26719;BME280;14326;50.794;6.060;2022-09-13T00:11:15;99128.72;;;17.10;90.11
26719;BME280;14326;50.794;6.060;2022-09-13T00:13:43;99127.63;;;17.18;91.09
26719;BME280;14326;50.794;6.060;2022-09-13T00:16:13;99131.22;;;17.17;91.67
26719;BME280;14326;50.794;6.060;2022-09-13T00:18:41;99133.03;;;17.17;91.33
26719;BME280;14326;50.794;6.060;2022-09-13T00:21:09;99128.50;;;17.19;91.66
26719;BME280;14326;50.794;6.060;2022-09-13T00:23:37;99127.53;;;17.22;91.70
26719;BME280;14326;50.794;6.060;2022-09-13T00:26:06;99131.22;;;17.17;93.23
26719;BME280;14326;50.794;6.060;2022-09-13T00:28:34;99133.78;;;17.22;92.72
26719;BME280;14326;50.794;6.060;2022-09-13T00:31:01;99132.91;;;17.22;92.86
26719;BME280;14326;50.794;6.060;2022-09-13T00:33:30;99133.75;;;17.24;93.02
26719;BME280;14326;50.794;6.060;2022-09-13T00:35:57;99126.63;;;17.23;92.92
26719;BME280;14326;50.794;6.060;2022-09-13T00:38:24;99114.06;;;17.23;93.24
26719;BME280;14326;50.794;6.060;2022-09-13T00:40:50;99118.41;;;17.29;92.94
26719;BME280;14326;50.794;6.060;2022-09-13T00:43:19;99112.97;;;17.32;93.58
26719;BME280;14326;50.794;6.060;2022-09-13T00:45:47;99112.97;;;17.32;93.32
26719;BME280;14326;50.794;6.060;2022-09-13T00:48:18;99117.31;;;17.36;93.01
26719;BME280;14326;50.794;6.060;2022-09-13T00:50:51;99107.38;;;17.38;92.64
26719;BME280;14326;50.794;6.060;2022-09-13T00:53:23;99109.09;;;17.42;92.35
26719;BME280;14326;50.794;6.060;2022-09-13T00:55:54;99112.56;;;17.45;96.02
26719;BME280;14326;50.794;6.060;2022-09-13T00:58:26;57030.06;;;-142.25;100.00
26719;BME280;14326;50.794;6.060;2022-09-13T01:00:55;57030.06;;;-142.25;100.00
26719;BME280;14326;50.794;6.060;2022-09-13T01:03:26;57030.06;;;-142.25;100.00
26719;BME280;14326;50.794;6.060;2022-09-13T01:05:57;57030.06;;;-142.25;100.00
26719;BME280;14326;50.794;6.060;2022-09-13T01:08:26;57030.06;;;-142.25;100.00
26719;BME280;14326;50.794;6.060;2022-09-13T01:10:57;57030.06;;;-142.25;100.00
26719;BME280;14326;50.794;6.060;2022-09-13T01:13:27;57030.06;;;-142.25;100.00
26719;BME280;14326;50.794;6.060;2022-09-13T01:15:56;57030.06;;;-142.25;100.00
26719;BME280;14326;50.794;6.060;2022-09-13T01:18:23;57030.06;;;-142.25;100.00
26719;BME280;14326;50.794;6.060;2022-09-13T01:24:25;57030.06;;;-142.25;100.00
26719;BME280;14326;50.794;6.060;2022-09-13T01:30:17;57030.06;;;-142.25;100.00
26719;BME280;14326;50.794;6.060;2022-09-13T01:33:09;57030.06;;;-142.25;100.00
26719;BME280;14326;50.794;6.060;2022-09-13T01:35:50;57030.06;;;-142.25;100.00
26719;BME280;14326;50.794;6.060;2022-09-13T01:38:34;57030.06;;;-142.25;100.00
26719;BME280;14326;50.794;6.060;2022-09-13T01:41:13;57030.06;;;-142.25;100.00
26719;BME280;14326;50.794;6.060;2022-09-13T01:43:52;57030.06;;;-142.25;100.00
26719;BME280;14326;50.794;6.060;2022-09-13T01:46:26;57030.06;;;-142.25;100.00
26719;BME280;14326;50.794;6.060;2022-09-13T01:48:59;57030.06;;;-142.25;100.00
26719;BME280;14326;50.794;6.060;2022-09-13T01:51:31;57030.06;;;-142.25;100.00
26719;BME280;14326;50.794;6.060;2022-09-13T01:54:14;57030.06;;;-142.25;100.00
26719;BME280;14326;50.794;6.060;2022-09-13T01:56:51;57030.06;;;-142.25;100.00
26719;BME280;14326;50.794;6.060;2022-09-13T01:59:22;57030.06;;;-142.25;100.00
26719;BME280;14326;50.794;6.060;2022-09-13T02:01:55;57030.06;;;-142.25;100.00
26719;BME280;14326;50.794;6.060;2022-09-13T02:04:28;57030.06;;;-142.25;100.00
26719;BME280;14326;50.794;6.060;2022-09-13T02:07:00;57030.06;;;-142.25;100.00
26719;BME280;14326;50.794;6.060;2022-09-13T02:09:30;57030.06;;;-142.25;100.00
26719;BME280;14326;50.794;6.060;2022-09-13T02:12:04;57030.06;;;-142.25;100.00
26719;BME280;14326;50.794;6.060;2022-09-13T02:14:35;57030.06;;;-142.25;100.00
26719;BME280;14326;50.794;6.060;2022-09-13T02:17:06;57030.06;;;-142.25;100.00
26719;BME280;14326;50.794;6.060;2022-09-13T02:19:37;57030.06;;;-142.25;100.00
26719;BME280;14326;50.794;6.060;2022-09-13T02:22:07;57030.06;;;-142.25;100.00
26719;BME280;14326;50.794;6.060;2022-09-13T02:24:39;57030.06;;;-142.25;100.00
26719;BME280;14326;50.794;6.060;2022-09-13T02:27:11;57030.06;;;-142.25;100.00
26719;BME280;14326;50.794;6.060;2022-09-13T02:29:41;57030.06;;;-142.25;100.00
26719;BME280;14326;50.794;6.060;2022-09-13T02:32:12;57030.06;;;-142.25;100.00
26719;BME280;14326;50.794;6.060;2022-09-13T02:34:44;57030.06;;;-142.25;100.00
26719;BME280;14326;50.794;6.060;2022-09-13T02:37:11;57030.06;;;-142.25;100.00
26719;BME280;14326;50.794;6.060;2022-09-13T02:39:43;57030.06;;;-142.25;100.00
26719;BME280;14326;50.794;6.060;2022-09-13T02:42:16;57030.06;;;-142.25;100.00
26719;BME280;14326;50.794;6.060;2022-09-13T02:44:46;57030.06;;;-142.25;100.00
26719;BME280;14326;50.794;6.060;2022-09-13T02:47:28;57030.06;;;-142.25;100.00
26719;BME280;14326;50.794;6.060;2022-09-13T02:50:07;57030.06;;;-142.25;100.00
26719;BME280;14326;50.794;6.060;2022-09-13T02:52:41;57030.06;;;-142.25;100.00
26719;BME280;14326;50.794;6.060;2022-09-13T02:55:16;57030.06;;;-142.25;100.00
26719;BME280;14326;50.794;6.060;2022-09-13T02:57:51;57030.06;;;-142.25;100.00
26719;BME280;14326;50.794;6.060;2022-09-13T03:00:20;57030.06;;;-142.25;100.00
26719;BME280;14326;50.794;6.060;2022-09-13T03:02:49;57030.06;;;-142.25;100.00
26719;BME280;14326;50.794;6.060;2022-09-13T03:05:17;57030.06;;;-142.25;100.00
26719;BME280;14326;50.794;6.060;2022-09-13T03:07:44;57030.06;;;-142.25;100.00
26719;BME280;14326;50.794;6.060;2022-09-13T03:10:12;57030.06;;;-142.25;100.00
26719;BME280;14326;50.794;6.060;2022-09-13T03:12:54;57030.06;;;-142.25;100.00
26719;BME280;14326;50.794;6.060;2022-09-13T03:15:36;57030.06;;;-142.25;100.00
26719;BME280;14326;50.794;6.060;2022-09-13T03:18:18;57030.06;;;-142.25;100.00
26719;BME280;14326;50.794;6.060;2022-09-13T03:20:57;57030.06;;;-142.25;100.00
26719;BME280;14326;50.794;6.060;2022-09-13T03:23:33;57030.06;;;-142.25;100.00
26719;BME280;14326;50.794;6.060;2022-09-13T03:26:16;57030.06;;;-142.25;100.00
26719;BME280;14326;50.794;6.060;2022-09-13T03:28:52;57030.06;;;-142.25;100.00
26719;BME280;14326;50.794;6.060;2022-09-13T03:31:24;57030.06;;;-142.25;100.00
26719;BME280;14326;50.794;6.060;2022-09-13T03:33:58;57030.06;;;-142.25;100.00
26719;BME280;14326;50.794;6.060;2022-09-13T03:36:34;57030.06;;;-142.25;100.00
26719;BME280;14326;50.794;6.060;2022-09-13T03:39:08;57030.06;;;-142.25;100.00
26719;BME280;14326;50.794;6.060;2022-09-13T03:41:41;57030.06;;;-142.25;100.00
26719;BME280;14326;50.794;6.060;2022-09-13T03:44:11;57030.06;;;-142.25;100.00
26719;BME280;14326;50.794;6.060;2022-09-13T03:46:40;57030.06;;;-142.25;100.00
26719;BME280;14326;50.794;6.060;2022-09-13T03:49:11;57030.06;;;-142.25;100.00
26719;BME280;14326;50.794;6.060;2022-09-13T03:51:39;57030.06;;;-142.25;100.00
26719;BME280;14326;50.794;6.060;2022-09-13T03:54:11;57030.06;;;-142.25;100.00
26719;BME280;14326;50.794;6.060;2022-09-13T03:56:40;57030.06;;;-142.25;100.00
26719;BME280;14326;50.794;6.060;2022-09-13T03:59:07;57030.06;;;-142.25;100.00
26719;BME280;14326;50.794;6.060;2022-09-13T04:01:33;57030.06;;;-142.25;100.00
26719;BME280;14326;50.794;6.060;2022-09-13T04:04:01;57030.06;;;-142.25;100.00
26719;BME280;14326;50.794;6.060;2022-09-13T04:06:29;57030.06;;;-142.25;100.00
26719;BME280;14326;50.794;6.060;2022-09-13T04:08:56;57030.06;;;-142.25;100.00
26719;BME280;14326;50.794;6.060;2022-09-13T04:11:24;57030.06;;;-142.25;100.00
26719;BME280;14326;50.794;6.060;2022-09-13T04:13:50;57030.06;;;-142.25;100.00
26719;BME280;14326;50.794;6.060;2022-09-13T04:16:17;57030.06;;;-142.25;100.00
26719;BME280;14326;50.794;6.060;2022-09-13T04:18:44;57030.06;;;-142.25;100.00
